Metar Cercanos

 

LEPA - Palma De Mallorc, Spain
Distance from station: ONO 38km
Actualización: 18/10/2018 14:00
Parcialmente nuboso
Parcialmente nuboso
 Viento del E
Viento: E 19 km/h
Temperatura: 23°C
Rocío: 20°C
Humedad: 83%
Barómetro: 1007 hPa
Clouds: Parcialmente nuboso
Visibility: 10 km
Cloud details: Few Clouds 427 m
Parcialmente nuboso 853 m
2018/10/18 12:00 LEPA 181200Z 08010KT 040V110 9999 FEW014 SCT028 23/20 Q1007 NOSIG
LEMH - Mahon/Menorca Is, Spain
Distance from station: ENE 105km
Actualización: 18/10/2018 14:00
Muy nuboso
Muy nuboso
 Viento del ENE
Viento: ENE 26 km/h
Temperatura: 22°C
Rocío: 19°C
Humedad: 83%
Barómetro: 1008 hPa
Clouds: Muy nuboso
Visibility: 10 km
Cloud details: Muy nuboso 305 m
2018/10/18 12:00 LEMH 181200Z 06014KT 9999 BKN010 22/19 Q1008
 
LEIB - Ibiza/Es Codola, Spain
Distance from station: OSO 165km
Actualización: 18/10/2018 14:00
Parcialmente nuboso
Parcialmente nuboso
 Viento del E
Viento: E 19 km/h
Temperatura: 23°C
Rocío: 16°C
Humedad: 65%
Barómetro: 1007 hPa
Clouds: Parcialmente nuboso
Visibility: 10 km
Cloud details: Few Clouds 762 m
Parcialmente nuboso 823 m
2018/10/18 12:00 LEIB 181200Z 08010KT 050V110 9999 FEW025TCU SCT027 23/16 Q1007 NOSIG
LEBL - Barcelona Airpor, Spain
Distance from station: NNO 225km
Actualización: 18/10/2018 14:30
Few Clouds
Few Clouds
 Viento del NNE
Viento: NNE 24 km/h
Temperatura: 20°C
Rocío: 17°C
Humedad: 83%
Barómetro: 1010 hPa
Clouds: Few Clouds
Visibility: 10 km
Cloud details: Few Clouds 1067 m
2018/10/18 12:30 LEBL 181230Z 03013KT 9999 FEW035 20/17 Q1010 NOSIG
 
LEVC - Valencia (civ/Mi, Spain
Distance from station: NO 188km
Actualización: 18/10/2018 14:30
Rain showers, Muy nuboso
Rain showers, Muy nuboso
 Viento del NO
Viento: NO 19 km/h
Temperatura: 16°C
Rocío: 16°C
Humedad: 100%
Barómetro: 1009 hPa
Resumen: Rain Showers
Clouds: Muy nuboso
Visibility: 8 km
Cloud details: Few Clouds 549 m
Few Clouds 762 m
Muy nuboso 914 m
2018/10/18 12:30 LEVC 181230Z 31010KT 8000 SHRA FEW018 FEW025TCU BKN030 16/16 Q1009 NOSIG
LEGE - Gerona/Costa Bra, Spain
Distance from station: N 276km
Actualización: 18/10/2018 14:30
Muy nuboso
Muy nuboso
 Viento del NNE
Viento: NNE 19 km/h
Temperatura: 18°C
Rocío: 18°C
Humedad: 100%
Barómetro: 1013 hPa
Clouds: Muy nuboso
Visibility: 8 km
Cloud details: Parcialmente nuboso 305 m
Muy nuboso 488 m
2018/10/18 12:30 LEGE 181230Z 03010KT 350V050 8000 SCT010 BKN016 18/18 Q1013
 
LEAL - Alicante/El Alte, Spain
Distance from station: OSO 344km
Actualización: 18/10/2018 14:30
Cubierto
Cubierto
 Viento del N
Viento: N 9 km/h
Temperatura: 23°C
Rocío: 14°C
Humedad: 57%
Barómetro: 1008 hPa
Clouds: Cubierto
Visibility: 10 km
Cloud details: Cubierto 1890 m
2018/10/18 12:30 LEAL 181230Z 36005KT 250V060 9999 OVC062 23/14 Q1008 NOSIG
LEAM - Almeria Airport, Spain
Distance from station: SSO 56km
Actualización: 18/10/2018 14:30
Few Clouds
Few Clouds
 Viento del SE
Viento: SE 15 km/h
Temperatura: 22°C
Rocío: 16°C
Humedad: 69%
Barómetro: 1007 hPa
Clouds: Few Clouds
Visibility: 10 km
Cloud details: Few Clouds 762 m
Few Clouds 914 m
2018/10/18 12:30 LEAM 181230Z 13008KT 9999 FEW025 FEW030TCU 22/16 Q1007
 
LEZG - Zaragoza (mil/Ci, Spain
Distance from station: NO 431km
Actualización: 18/10/2018 14:30
Muy nuboso
Muy nuboso
 Viento del NNO
Viento: NNO 13 km/h
Temperatura: 20°C
Rocío: 12°C
Humedad: 60%
Barómetro: 1013 hPa
Clouds: Muy nuboso
Visibility: 10 km
Cloud details: Parcialmente nuboso 1981 m
Muy nuboso 2438 m
2018/10/18 12:30 LEZG 181230Z 33007KT 260V010 9999 SCT065 BKN080 20/12 Q1013
LEMD - Madrid/Barajas, Spain
Distance from station: ONO 234km
Actualización: 18/10/2018 14:30
Parcialmente nuboso
Parcialmente nuboso
 Viento del ENE
Viento: ENE 11 km/h
Temperatura: 22°C
Rocío: 9°C
Humedad: 44%
Clouds: Parcialmente nuboso
Visibility: 10 km
Cloud details: Parcialmente nuboso 1524 m
2018/10/18 12:30 LEMD 181230Z 07006KT 020V130 9999 SCT050 22/09 Q101
 
LEGR - Granada Airport, Spain
Distance from station: OSO 62km
Actualización: 18/10/2018 14:30
Lluvia débil, Cubierto
Lluvia débil, Cubierto
 Viento del NE
Viento: NE 6 km/h
Temperatura: 11°C
Rocío: 10°C
Humedad: 94%
Barómetro: 1010 hPa
Resumen: Lluvia débil
Clouds: Cubierto
Visibility: 10 km
Cloud details: Few Clouds 457 m
Parcialmente nuboso 1372 m
Cubierto 1829 m
2018/10/18 12:30 LEGR 181230Z 05003KT 020V090 9999 -RA FEW015 SCT045 OVC060 11/10 Q1010
LEMG - Malaga (civ/Mil), Spain
Distance from station: OSO 227km
Actualización: 18/10/2018 14:30
Parcialmente nuboso
Parcialmente nuboso
 Viento del ESE
Viento: ESE 2 km/h
Temperatura: 17°C
Rocío: 11°C
Humedad: 68%
Barómetro: 1008 hPa
Clouds: Parcialmente nuboso
Visibility: 10 km
Cloud details: Few Clouds 305 m
Few Clouds 914 m
Parcialmente nuboso 1829 m
2018/10/18 12:30 LEMG 181230Z 11001KT 9999 FEW010 FEW030CB SCT060 17/11 Q1008 NOSIG
 
LEZL - Sevilla (civ/Mil, Spain
Distance from station: S 318km
Actualización: 18/10/2018 14:30
Lluvia débil, Muy nuboso
Lluvia débil, Muy nuboso
 Viento del SE
Viento: SE 11 km/h
Temperatura: 15°C
Rocío: 13°C
Humedad: 88%
Barómetro: 1008 hPa
Resumen: Lluvia débil
Clouds: Muy nuboso
Visibility: 9 km
Cloud details: Few Clouds 457 m
Muy nuboso 1372 m
2018/10/18 12:30 LEZL 181230Z 13006KT 9000 -RA FEW015 BKN045 15/13 Q1008 RERA NOSIG
LEVT - Vitoria, Spain
Distance from station: NO 226km
Actualización: 18/10/2018 14:30
Light drizzle, Lluvia, Muy nuboso
Light drizzle, Lluvia, Muy nuboso
 Viento del N
Viento: N 15 km/h
Temperatura: 15°C
Rocío: 13°C
Humedad: 88%
Barómetro: 1016 hPa
Resumen: Light drizzle, Lluvia
Clouds: Muy nuboso
Visibility: 8 km
Cloud details: Parcialmente nuboso 335 m
Muy nuboso 457 m
2018/10/18 12:30 LEVT 181230Z 01008KT 8000 -DZRA SCT011 BKN015 15/13 Q1016
 
LEBB - Bilbao/Sondica, Spain
Distance from station: NNO 235km
Actualización: 18/10/2018 14:30
Light drizzle, Mist, Muy nuboso
Light drizzle, Mist, Muy nuboso
 Viento del ONO
Viento: ONO 9 km/h
Temperatura: 17°C
Rocío: 16°C
Humedad: 94%
Barómetro: 1016 hPa
Resumen: Light drizzle, Mist
Clouds: Muy nuboso
Visibility: 5 km
Cloud details: Parcialmente nuboso 183 m
Muy nuboso 366 m
Muy nuboso 549 m
2018/10/18 12:30 LEBB 181230Z 30005KT 270V330 5000 -DZ BR SCT006 BKN012 BKN018 17/16 Q1016 TEMPO 3000
LESO - San Sebastian/Fu, Spain
Distance from station: N 231km
Actualización: 18/10/2018 14:30
Muy nuboso
Muy nuboso
 Viento del N
Viento: N 6 km/h
Temperatura: 18°C
Rocío: 16°C
Humedad: 88%
Barómetro: 1015 hPa
Clouds: Muy nuboso
Visibility: 6 km
Cloud details: Few Clouds 244 m
Muy nuboso 305 m
2018/10/18 12:30 LESO 181230Z 36003KT 300V050 6000 FEW008 BKN010 18/16 Q1015
 
LEVD - Valladolid(Mil/C, Spain
Distance from station: ONO 239km
Actualización: 18/10/2018 14:30
Few Clouds
Few Clouds
 Viento del ENE
Viento: ENE 33 km/h
Temperatura: 18°C
Rocío: 8°C
Humedad: 52%
Barómetro: 1014 hPa
Clouds: Few Clouds
Visibility: 10 km
Cloud details: Few Clouds 1219 m
2018/10/18 12:30 LEVD 181230Z 06018KT 030V090 9999 FEW040 18/08 Q1014
LESA - Salamanca (civ/M, Spain
Distance from station: ONO 349km
Actualización: 18/10/2018 14:30
Few Clouds
Few Clouds
 Viento del ENE
Viento: ENE 22 km/h
Temperatura: 16°C
Rocío: 10°C
Humedad: 68%
Barómetro: 1013 hPa
Clouds: Few Clouds
Visibility: 10 km
Cloud details: Few Clouds 762 m
2018/10/18 12:30 LESA 181230Z 07012KT 030V110 9999 FEW025 16/10 Q1013
 
LEXJ - Santander/Paraya, Spain
Distance from station: NNO 247km
Actualización: 18/10/2018 14:30
Muy nuboso
Muy nuboso
 Viento del NNO
Viento: NNO 7 km/h
Temperatura: 18°C
Rocío: 16°C
Humedad: 88%
Barómetro: 1016 hPa
Clouds: Muy nuboso
Visibility: 8 km
Cloud details: Few Clouds 335 m
Muy nuboso 1372 m
2018/10/18 12:30 LEXJ 181230Z 34004KT 290V020 8000 FEW011 BKN045 18/16 Q1016
LEAS - Asturias/Aviles, Spain
Distance from station: NO 214km
Actualización: 18/10/2018 14:30
Mist, Muy nuboso
Mist, Muy nuboso
 Viento del ENE
Viento: ENE 9 km/h
Temperatura: 17°C
Rocío: 16°C
Humedad: 94%
Barómetro: 1017 hPa
Resumen: Mist
Clouds: Muy nuboso
Visibility: 5 km
Cloud details: Parcialmente nuboso 457 m
Muy nuboso 762 m
2018/10/18 12:30 LEAS 181230Z 06005KT 010V100 5000 BR SCT015 BKN025 17/16 Q1017 NOSIG
 
LECO - La Coruna/Alvedr, Spain
Distance from station: ONO 222km
Actualización: 18/10/2018 14:30
Muy nuboso
Muy nuboso
 Viento del NE
Viento: NE 15 km/h
Temperatura: 18°C
Rocío: 14°C
Humedad: 78%
Barómetro: 1018 hPa
Clouds: Muy nuboso
Visibility: 10 km
Cloud details: Few Clouds 1006 m
Muy nuboso 1372 m
2018/10/18 12:30 LECO 181230Z 04008KT 320V080 9999 FEW033 BKN045 18/14 Q1018 NOSIG
LEVX - Vigo/Peinador, Spain
Distance from station: O 214km
Actualización: 18/10/2018 14:30
Parcialmente nuboso
Parcialmente nuboso
 Viento del NNE
Viento: NNE 20 km/h
Temperatura: 20°C
Rocío: 14°C
Humedad: 69%
Barómetro: 1014 hPa
Clouds: Parcialmente nuboso
Visibility: 10 km
Cloud details: Parcialmente nuboso 1097 m
2018/10/18 12:30 LEVX 181230Z 03011KT 360V090 9999 SCT036 20/14 Q1014 NOSIG